My Meet Scores
Laila Adams, Aspire Gymnastics Academy - MyMeetScores.com
Top100 | Top Teams | Upcoming Meets | Completed Meets | Latest | Add Scores | Help| Support | Bookmark and Share

Laila Adams, Aspire Gymnastics Academy
Personal Bests
LevelVault BarsBeamFloorAA
39.7009.450 9.3009.55037.525
49.6759.575 9.2509.25037.200
Scores on America's Top 100as of 07.17.2019
Year Level Vault Bars Beam Floor AA
2019 49.675

Click here to view our
exclusive Top 100 Collection
Meet Scores
Date Meet Team Session Level Division Vault Bars Beam Floor AA
2019-03-22 Illinois Gymnastics State Championships Aspire Gymnastics Academy 8 4 Ch F 9.075 8 9.575 4 9.250 15T 9.100 12T 37.000 8T
2019-03-08 Lucky Invite Aspire Gymnastics Academy A09 4 Jr A 9.675 2 9.525 6 8.850 14T 9.150 5 37.200 5
2019-02-23 Kinetic Classic 2019 Aspire Gymnastics Academy 1 4 Younger 9.150 97T 9.300 125T 7.875 557T 9.150 187T 35.475 302T
2019-02-15 Big ClassicBIG CLASSIC Aspire Gymnastics Academy 5A 4 Child B 9.300 4 9.200 3 8.600 13 9.050 6 36.150 4
2019-01-25 UGA Invitational Aspire Gymnastics Academy B06 4 Ch B 9.075 5 9.400 5 8.800 11 9.250 3 36.525 4
2019-01-18 2019 Bravo Classic Aspire Gymnastics Academy 3B 4 Child 9.500 3T 8.850 12 8.925 10 9.225 7T 36.500 6
2018-12-14 2018 Aspire Classic Aspire Gymnastics Academy 5A 4 Younger 9.150 3T 8.950 7T 9.100 12T 9.050 14T 36.250 8
2018-12-07 St. Nick Invite 2018 Aspire Gymnastics Academy 5A 4 JrB 9.100 5 8.900 8 9.075 5 9.000 8T 36.075 5
2018-11-17 Paul Hamm Thanksgiving Class WOMENS Aspire Gymnastics Academy 6 4 Younger 8.700 15 8.925 13 9.225 6 9.200 8T 36.050 7
2018-05-03 Illinois USA Gymnastics Level 3 State Championships Aspire Gymnastics Academy 4 3 Youth A 9.625 7 9.250 12 9.100 10 9.550 2T 37.525 7
2018-02-16 Big Classic Aspire Gymnastics Academy 1B 3 Child A 8.925 11T 9.450 4T 9.100 4T 9.325 6T 36.800 7
2018-01-26 2018 UGA Classic Aspire Gymnastics Academy A8 3 Jr B 9.300 7T 8.950 10 9.300 11 9.550 1 37.100 10
2018-01-19 2018 Bravo Classic Aspire Gymnastics Academy 7B 3 Jr 9.100 12 9.300 4T 9.125 5T 9.525 2 37.050 3
2017-12-15 2017 Aspire Classic Aspire Gymnastics Academy 11A 3 Younger 9.625 4T 8.775 9 9.200 3T 9.425 6 37.025 5
2017-12-08 St. Nick Invite Aspire Gymnastics Academy 6A 3 JrB 9.500 3 9.200 3 9.150 3 9.375 2 37.225 1T
2017-11-16 Paul Hamm Thanksgiving Classic - Women Aspire Gymnastics Academy 1 3 Middle 9.700 1 9.000 7 9.275 2 9.200 3T 37.175 2
2017-03-30 2017 Illinois Level 3 & 5 State Aspire Gymnastics Academy All 3 Ch B 9.375 15T 8.850 22 8.800 17 8.700 21 35.725 17T
2017-02-24 Kinetic Classic Aspire Gymnastics Academy 4,5,6,7 3 All Ages 9.000 75T 7.800 107 8.375 89T 9.025 47T 34.200 91T
2017-02-18 2017 Great Western Invitational Women's Aspire Gymnastics Academy 1 3 Filly 8.900 13 8.625 13 8.150 17T 9.150 13T 34.825 14
2017-01-27 2017 UGA Invitational Aspire Gymnastics Academy B7 3 Jr A 8.400 13 8.350 11 8.425 11 8.650 10 33.825 9
2017-01-20 2017 Bravo Classic Aspire Gymnastics Academy 11B 3 6-7yrs 9.000 6T 8.500 10T 8.650 8 8.500 9T 34.650 10
2016-12-16 2016 Aspire Classic Aspire Gymnastics Academy 12 3 Younger 8.900 13 8.700 12 8.275 9T 8.850 9T 34.725 10
2016-12-09 St. Nick Invite Aspire Gymnastics Academy 5 3 All 9.250 36T 8.175 68 8.350 75T 9.000 39 34.775 55
2016-11-19 Paul Hamm Thanksgiving Classic - 2016 Girls Aspire Gymnastics Academy 5 3 6-7 yrs 8.300 10T 7.750 13 8.150 10 8.550 7 32.750 10
Click here to view our personalized
"Celebrate Your Season"
2018-19 Collection

www.lazysuits.com